Time;durP1;ratioP1;P1;durP2;ratioP2;P2;SDS_P1;SDS_P2;PMS_P1;PMS_P2;Temp;Humidity;BMP_temperature;BMP_pressure;BME280_temperature;BME280_humidity;BME280_pressure;Samples;Min_cycle;Max_cycle;Signal;HPM_P1;HPM_P2
2021/04/07 00:00:39;;;;;;;5.40;3.25;;;0.70;99.90;;;;;;5042391;28;20025;-71
2021/04/07 00:03:06;;;;;;;3.80;3.17;;;0.70;99.90;;;;;;5049732;28;20017;-72
2021/04/07 00:05:35;;;;;;;3.85;3.33;;;0.70;99.90;;;;;;5037224;28;20021;-72
2021/04/07 00:08:01;;;;;;;3.45;2.90;;;0.70;99.90;;;;;;5041966;28;20106;-72
2021/04/07 00:10:32;;;;;;;4.78;2.83;;;0.70;99.90;;;;;;5045992;28;20040;-73
2021/04/07 00:12:58;;;;;;;3.40;2.83;;;0.70;99.90;;;;;;5044035;28;20075;-72
2021/04/07 00:15:26;;;;;;;5.53;3.10;;;0.80;99.90;;;;;;5044750;28;20390;-72
2021/04/07 00:17:51;;;;;;;4.18;2.78;;;0.80;99.90;;;;;;5006304;28;20025;-72
2021/04/07 00:20:23;;;;;;;3.08;2.80;;;0.80;99.90;;;;;;5050350;28;20443;-72
2021/04/07 00:22:49;;;;;;;3.10;2.75;;;0.80;99.90;;;;;;5042969;28;20028;-72
2021/04/07 00:25:16;;;;;;;3.28;2.75;;;0.90;99.90;;;;;;5050388;28;20028;-72
2021/04/07 00:27:43;;;;;;;6.20;3.30;;;0.90;99.90;;;;;;5056172;28;20063;-72
2021/04/07 00:30:10;;;;;;;4.03;2.65;;;0.90;99.90;;;;;;5053560;28;20029;-72
2021/04/07 00:32:36;;;;;;;3.70;2.63;;;0.80;99.90;;;;;;5044146;28;20065;-72
2021/04/07 00:35:03;;;;;;;2.80;2.60;;;0.80;99.90;;;;;;5037268;28;20385;-72
2021/04/07 00:37:28;;;;;;;3.38;2.55;;;0.80;99.90;;;;;;5026550;28;20160;-73
2021/04/07 00:39:54;;;;;;;3.45;3.13;;;0.80;99.90;;;;;;5044681;28;20527;-72
2021/04/07 00:42:20;;;;;;;3.22;2.47;;;0.80;99.90;;;;;;5037602;28;20021;-72
2021/04/07 00:44:46;;;;;;;2.95;2.60;;;0.70;99.90;;;;;;5048968;28;20063;-72
2021/04/07 00:47:17;;;;;;;2.75;2.50;;;0.70;99.90;;;;;;5053441;28;20083;-72
2021/04/07 00:49:43;;;;;;;3.00;2.20;;;0.80;99.90;;;;;;5054771;28;20546;-72
2021/04/07 00:52:09;;;;;;;3.65;3.22;;;0.80;99.90;;;;;;5050161;28;20038;-72
2021/04/07 00:54:35;;;;;;;2.83;2.22;;;0.80;99.90;;;;;;5044754;28;20013;-72
2021/04/07 00:57:01;;;;;;;3.97;2.88;;;0.80;99.90;;;;;;5036817;28;20025;-73
2021/04/07 00:59:27;;;;;;;3.38;3.15;;;0.80;99.90;;;;;;5050807;28;20100;-71
2021/04/07 01:01:53;;;;;;;6.57;2.33;;;0.90;99.90;;;;;;5038325;28;20029;-71
2021/04/07 01:04:20;;;;;;;3.15;2.40;;;0.70;99.90;;;;;;5046207;28;20033;-71
2021/04/07 01:06:47;;;;;;;4.00;3.60;;;0.60;99.90;;;;;;5031698;28;20385;-71
2021/04/07 01:09:13;;;;;;;5.38;2.45;;;0.80;1.00;;;;;;5049993;28;20029;-72
2021/04/07 01:11:38;;;;;;;5.55;2.92;;;0.80;1.00;;;;;;5050243;28;20531;-73
2021/04/07 01:14:04;;;;;;;3.92;2.90;;;0.70;99.90;;;;;;5053822;28;20303;-72
2021/04/07 01:16:31;;;;;;;3.38;2.90;;;0.70;99.90;;;;;;5039265;28;20013;-72
2021/04/07 01:18:57;;;;;;;3.92;3.47;;;0.70;99.90;;;;;;5049279;28;20392;-72
2021/04/07 01:21:23;;;;;;;3.20;2.78;;;0.70;99.90;;;;;;5044083;28;20025;-71
2021/04/07 01:23:48;;;;;;;3.50;2.78;;;0.60;99.90;;;;;;5042481;28;20075;-72
2021/04/07 01:26:15;;;;;;;7.47;3.38;;;0.60;99.90;;;;;;5044656;28;20033;-72
2021/04/07 01:28:42;;;;;;;5.60;3.72;;;0.50;99.90;;;;;;5026043;28;20033;-72
2021/04/07 01:31:08;;;;;;;5.82;2.90;;;0.40;99.90;;;;;;5045316;28;20025;-73
2021/04/07 01:33:35;;;;;;;3.78;3.25;;;0.40;99.90;;;;;;5041709;28;20396;-73
2021/04/07 01:36:01;;;;;;;4.20;2.78;;;0.40;99.90;;;;;;5046905;28;20024;-72
2021/04/07 01:38:26;;;;;;;4.10;3.67;;;0.40;99.90;;;;;;5051668;28;20033;-72
2021/04/07 01:40:54;;;;;;;6.00;3.83;;;0.40;99.90;;;;;;5040521;28;20112;-72
2021/04/07 01:43:21;;;;;;;5.65;3.40;;;0.40;99.90;;;;;;5038771;28;20021;-72
2021/04/07 01:45:48;;;;;;;5.75;3.15;;;0.30;99.90;;;;;;5034593;28;20049;-72
2021/04/07 01:48:14;;;;;;;4.78;3.50;;;0.30;99.90;;;;;;5049862;28;20473;-71
2021/04/07 01:50:45;;;;;;;8.82;3.47;;;0.40;99.90;;;;;;5042482;28;20026;-72
2021/04/07 01:53:12;;;;;;;3.90;3.40;;;0.30;99.90;;;;;;5034689;28;20017;-71
2021/04/07 01:55:38;;;;;;;4.78;4.28;;;0.30;99.90;;;;;;5043405;28;20029;-72
2021/04/07 01:58:04;;;;;;;6.93;3.75;;;0.40;99.90;;;;;;5042041;28;20025;-73
2021/04/07 02:00:30;;;;;;;3.63;3.38;;;0.40;99.90;;;;;;5047238;28;20112;-72
2021/04/07 02:02:56;;;;;;;4.55;3.65;;;0.30;99.90;;;;;;5049042;28;20017;-71
2021/04/07 02:05:21;;;;;;;4.93;3.45;;;0.30;99.90;;;;;;5054928;28;20032;-72
2021/04/07 02:07:47;;;;;;;5.75;3.97;;;0.30;99.90;;;;;;5048070;28;20060;-72
2021/04/07 02:10:14;;;;;;;5.57;3.92;;;0.30;99.90;;;;;;5024768;28;20025;-72
2021/04/07 02:12:39;;;;;;;4.95;3.53;;;0.30;99.90;;;;;;5034131;28;20029;-72
2021/04/07 02:15:15;;;;;;;5.10;4.43;;;0.30;99.90;;;;;;5042515;28;20104;-71
2021/04/07 02:17:41;;;;;;;5.70;4.22;;;0.30;99.90;;;;;;5046794;28;20021;-72
2021/04/07 02:20:08;;;;;;;5.63;4.07;;;0.30;99.90;;;;;;5046498;28;20113;-71
2021/04/07 02:22:34;;;;;;;4.50;4.10;;;0.30;99.90;;;;;;5033842;28;20021;-73
2021/04/07 02:25:00;;;;;;;5.32;4.30;;;0.30;99.90;;;;;;5044118;28;20029;-72
2021/04/07 02:27:26;;;;;;;4.30;3.75;;;0.30;99.90;;;;;;5051972;28;20029;-73
2021/04/07 02:29:56;;;;;;;4.53;4.13;;;0.30;99.90;;;;;;5046510;28;20107;-72
2021/04/07 02:32:24;;;;;;;6.15;4.35;;;0.30;99.90;;;;;;5044995;28;20021;-74
2021/04/07 02:34:51;;;;;;;6.13;4.15;;;0.20;99.90;;;;;;5035728;28;20029;-72
2021/04/07 02:37:17;;;;;;;7.53;4.38;;;0.20;99.90;;;;;;5027877;28;20025;-72
2021/04/07 02:39:45;;;;;;;8.70;4.47;;;0.20;99.90;;;;;;5041880;28;20508;-71
2021/04/07 02:42:11;;;;;;;4.63;4.15;;;0.20;99.90;;;;;;5041231;28;20045;-74
2021/04/07 02:44:38;;;;;;;6.80;4.63;;;0.20;99.90;;;;;;5048938;28;20497;-72
2021/04/07 02:47:05;;;;;;;5.78;4.95;;;0.20;99.90;;;;;;5041027;28;20047;-72
2021/04/07 02:49:32;;;;;;;6.00;4.80;;;0.20;99.90;;;;;;5049692;28;20056;-74
2021/04/07 02:51:57;;;;;;;10.30;5.20;;;0.30;99.90;;;;;;5033522;28;20556;-71
2021/04/07 02:54:23;;;;;;;5.57;4.38;;;0.30;99.90;;;;;;5035882;28;20068;-73
2021/04/07 02:56:49;;;;;;;5.53;4.72;;;0.30;99.90;;;;;;5027121;28;20052;-71
2021/04/07 02:59:15;;;;;;;5.28;4.78;;;0.40;99.90;;;;;;5043101;28;20025;-71
2021/04/07 03:01:41;;;;;;;6.50;5.20;;;0.40;99.90;;;;;;5052116;28;20108;-72
2021/04/07 03:04:06;;;;;;;5.40;4.75;;;0.40;99.90;;;;;;5044554;28;20033;-73
2021/04/07 03:06:32;;;;;;;5.80;5.22;;;0.40;99.90;;;;;;5053750;28;20025;-72
2021/04/07 03:08:58;;;;;;;6.10;4.97;;;0.40;99.90;;;;;;5048054;28;20432;-72
2021/04/07 03:11:25;;;;;;;5.50;4.97;;;0.40;99.90;;;;;;5019887;28;20033;-72
2021/04/07 03:13:50;;;;;;;4.82;4.22;;;0.50;99.90;;;;;;5045913;28;20021;-72
2021/04/07 03:16:16;;;;;;;8.10;5.55;;;0.50;99.90;;;;;;5044248;28;20531;-72
2021/04/07 03:18:42;;;;;;;6.18;4.28;;;0.50;99.90;;;;;;5043039;28;20017;-72
2021/04/07 03:21:07;;;;;;;4.95;4.18;;;0.60;99.90;;;;;;5036912;28;20029;-72
2021/04/07 03:23:33;;;;;;;4.70;3.95;;;0.50;99.90;;;;;;5036358;28;20039;-72
2021/04/07 03:25:59;;;;;;;6.47;4.55;;;0.60;99.90;;;;;;5040594;28;20040;-72
2021/04/07 03:28:24;;;;;;;4.78;3.70;;;0.60;99.90;;;;;;5032923;28;20116;-72
2021/04/07 03:30:51;;;;;;;7.00;4.20;;;0.60;99.90;;;;;;5040986;28;20037;-71
2021/04/07 03:33:21;;;;;;;6.15;5.10;;;0.60;99.90;;;;;;5050106;28;20161;-73
2021/04/07 03:35:48;;;;;;;4.38;3.92;;;0.60;99.90;;;;;;5043017;28;20021;-72
2021/04/07 03:38:14;;;;;;;6.57;4.47;;;0.60;99.90;;;;;;5045659;28;20033;-71
2021/04/07 03:40:40;;;;;;;5.03;3.83;;;0.60;99.90;;;;;;5037575;28;20026;-72
2021/04/07 03:43:08;;;;;;;4.95;3.70;;;0.60;99.90;;;;;;5040483;28;20040;-71
2021/04/07 03:45:34;;;;;;;5.78;4.22;;;0.60;99.90;;;;;;5035039;28;20477;-72
2021/04/07 03:47:59;;;;;;;6.40;3.95;;;0.70;99.90;;;;;;5051768;28;20033;-73
2021/04/07 03:50:26;;;;;;;8.82;5.25;;;0.70;99.90;;;;;;5043173;28;20516;-72
2021/04/07 03:52:52;;;;;;;4.00;3.55;;;0.60;99.90;;;;;;5043183;28;20021;-72
2021/04/07 03:55:18;;;;;;;5.05;4.53;;;0.70;99.90;;;;;;5040470;28;20027;-72
2021/04/07 03:57:43;;;;;;;5.78;3.90;;;0.60;99.90;;;;;;5035601;28;20067;-72
2021/04/07 04:00:09;;;;;;;4.93;3.28;;;0.60;99.90;;;;;;5035888;28;20037;-72
2021/04/07 04:02:35;;;;;;;3.63;3.25;;;0.60;99.90;;;;;;5047120;28;20504;-73
2021/04/07 04:05:00;;;;;;;5.20;2.92;;;0.70;99.90;;;;;;5039703;28;20044;-73
2021/04/07 04:07:26;;;;;;;4.78;3.58;;;0.70;99.90;;;;;;5036138;28;20045;-72
2021/04/07 04:09:52;;;;;;;7.18;3.15;;;0.60;99.90;;;;;;5052542;28;20098;-72
2021/04/07 04:12:18;;;;;;;6.32;3.28;;;0.60;99.90;;;;;;5052644;28;20029;-73
2021/04/07 04:14:43;;;;;;;3.38;2.70;;;0.60;99.90;;;;;;5045958;28;20033;-72
2021/04/07 04:17:09;;;;;;;6.57;3.10;;;0.60;99.90;;;;;;5032946;28;20044;-72
2021/04/07 04:19:34;;;;;;;3.10;2.80;;;0.60;99.90;;;;;;5041477;28;20525;-72
2021/04/07 04:22:01;;;;;;;5.38;3.75;;;0.60;99.90;;;;;;5032369;28;20029;-72
2021/04/07 04:24:27;;;;;;;4.00;3.42;;;0.60;99.90;;;;;;5032492;28;20021;-73
2021/04/07 04:26:53;;;;;;;5.85;3.75;;;0.70;99.90;;;;;;5034079;28;20037;-72
2021/04/07 04:29:19;;;;;;;5.78;3.25;;;0.70;99.90;;;;;;5078606;23;20069;-79
2021/04/07 04:31:44;;;;;;;7.57;3.03;;;0.70;99.90;;;;;;5064281;28;20254;-75
2021/04/07 04:34:10;;;;;;;4.28;2.75;;;0.60;99.90;;;;;;5039497;28;20036;-76
2021/04/07 04:36:36;;;;;;;3.30;2.58;;;0.70;99.90;;;;;;5052622;28;20017;-74
2021/04/07 04:39:01;;;;;;;3.00;2.60;;;0.70;99.90;;;;;;5053580;28;20089;-74
2021/04/07 04:41:27;;;;;;;3.40;2.30;;;0.60;99.90;;;;;;5072296;28;20021;-76
2021/04/07 04:43:52;;;;;;;2.92;2.63;;;0.60;99.90;;;;;;5056644;28;20025;-74
2021/04/07 04:46:18;;;;;;;3.08;2.65;;;0.60;99.90;;;;;;5055914;28;20080;-74
2021/04/07 04:48:43;;;;;;;3.88;3.17;;;0.60;99.90;;;;;;5059568;28;20032;-74
2021/04/07 04:51:09;;;;;;;3.72;2.38;;;0.60;99.90;;;;;;5034672;28;20628;-74
2021/04/07 04:53:35;;;;;;;3.00;2.53;;;0.70;99.90;;;;;;5055205;28;20036;-75
2021/04/07 04:56:00;;;;;;;2.97;2.45;;;0.70;99.90;;;;;;5054661;28;20021;-76
2021/04/07 04:58:26;;;;;;;4.97;2.55;;;0.70;99.90;;;;;;5036280;28;20542;-74
2021/04/07 05:00:51;;;;;;;3.67;2.75;;;0.70;99.90;;;;;;5054765;28;20018;-75
2021/04/07 05:03:17;;;;;;;3.25;2.67;;;0.70;99.90;;;;;;5036383;28;20511;-75
2021/04/07 05:05:42;;;;;;;3.58;2.72;;;0.70;99.90;;;;;;5054775;28;20024;-76
2021/04/07 05:08:08;;;;;;;4.30;2.17;;;0.70;99.90;;;;;;5038779;28;20021;-76
2021/04/07 05:10:33;;;;;;;3.08;2.78;;;0.80;99.90;;;;;;5057064;28;20061;-76
2021/04/07 05:12:59;;;;;;;3.40;2.75;;;0.80;99.90;;;;;;5039163;28;20025;-76
2021/04/07 05:15:25;;;;;;;4.00;2.72;;;0.80;99.90;;;;;;5039337;28;20048;-75
2021/04/07 05:17:50;;;;;;;3.13;2.78;;;0.80;99.90;;;;;;5057770;28;20054;-75
2021/04/07 05:20:16;;;;;;;6.03;4.28;;;0.80;99.90;;;;;;5056773;28;20073;-76
2021/04/07 05:22:43;;;;;;;7.90;3.03;;;0.80;99.90;;;;;;5056678;28;20083;-76
2021/04/07 05:25:09;;;;;;;5.22;2.83;;;0.70;99.90;;;;;;5056283;28;20017;-76
2021/04/07 05:27:34;;;;;;;5.50;2.97;;;0.70;99.90;;;;;;5051081;28;20051;-76
2021/04/07 05:30:00;;;;;;;4.45;2.47;;;0.70;99.90;;;;;;5056070;28;20052;-75
2021/04/07 05:32:25;;;;;;;2.30;1.83;;;0.80;99.90;;;;;;5058136;28;20032;-75
2021/04/07 05:34:51;;;;;;;4.40;2.33;;;0.80;99.90;;;;;;5058545;28;20456;-75
2021/04/07 05:37:17;;;;;;;3.92;2.88;;;0.90;99.90;;;;;;5056727;28;20488;-77
2021/04/07 05:39:42;;;;;;;3.22;2.17;;;0.90;99.90;;;;;;5053815;28;20042;-75
2021/04/07 05:42:08;;;;;;;3.63;2.20;;;0.90;99.90;;;;;;5056957;28;20423;-75
2021/04/07 05:44:33;;;;;;;3.13;2.17;;;0.90;99.90;;;;;;5056907;28;20497;-76
2021/04/07 05:46:59;;;;;;;3.15;2.42;;;0.90;99.90;;;;;;5058100;28;20164;-74
2021/04/07 05:49:28;;;;;;;2.83;2.05;;;0.90;99.90;;;;;;5057904;28;20024;-75
2021/04/07 05:51:53;;;;;;;4.93;2.55;;;0.90;99.90;;;;;;5058138;28;20079;-75
2021/04/07 05:54:19;;;;;;;4.40;2.55;;;0.90;99.90;;;;;;5057867;28;20029;-77
2021/04/07 05:56:45;;;;;;;6.13;3.30;;;1.00;99.90;;;;;;5057834;28;20063;-75
2021/04/07 05:59:11;;;;;;;5.10;2.63;;;1.00;99.90;;;;;;5057787;28;20428;-76
2021/04/07 06:01:36;;;;;;;4.40;2.45;;;1.00;99.90;;;;;;5057851;28;20025;-76
2021/04/07 06:04:02;;;;;;;6.32;2.65;;;1.00;99.90;;;;;;5058134;28;20104;-74
2021/04/07 06:06:29;;;;;;;5.68;2.50;;;1.10;92.80;;;;;;5059156;28;20032;-76
2021/04/07 06:08:55;;;;;;;4.60;2.47;;;1.10;99.90;;;;;;5037674;28;20032;-77
2021/04/07 06:11:20;;;;;;;6.75;3.60;;;1.10;77.50;;;;;;5057205;28;20446;-78
2021/04/07 06:13:49;;;;;;;5.90;2.40;;;1.30;70.10;;;;;;5059625;28;20029;-76
2021/04/07 06:16:15;;;;;;;3.03;2.60;;;1.20;57.60;;;;;;5041655;28;20471;-74
2021/04/07 06:18:42;;;;;;;3.63;1.65;;;1.30;46.30;;;;;;5041461;28;20064;-76
2021/04/07 06:21:08;;;;;;;3.17;2.30;;;1.20;1.00;;;;;;5067011;28;20024;-76
2021/04/07 06:23:33;;;;;;;4.68;2.88;;;1.30;7.10;;;;;;5074559;28;20035;-76
2021/04/07 06:25:59;;;;;;;5.40;2.22;;;1.30;20.80;;;;;;5059015;28;20040;-75
2021/04/07 06:28:25;;;;;;;6.15;2.70;;;1.60;1.00;;;;;;5075769;28;20117;-78
2021/04/07 06:30:50;;;;;;;2.50;1.85;;;1.80;1.00;;;;;;5060136;28;20085;-75
2021/04/07 06:33:28;;;;;;;3.85;2.25;;;1.90;1.00;;;;;;5068073;28;20094;-76
2021/04/07 06:35:59;;;;;;;6.00;1.90;;;1.80;99.90;;;;;;5060899;28;20021;-75
2021/04/07 06:38:26;;;;;;;3.60;1.95;;;2.00;1.00;;;;;;5060054;28;20411;-76
2021/04/07 06:40:53;;;;;;;3.15;2.17;;;2.30;99.90;;;;;;5055337;28;20129;-75
2021/04/07 06:43:21;;;;;;;2.53;2.10;;;2.40;99.90;;;;;;5054014;28;20029;-76
2021/04/07 06:45:47;;;;;;;3.95;2.53;;;2.30;99.90;;;;;;5060123;28;20035;-76
2021/04/07 06:48:14;;;;;;;2.17;1.90;;;2.10;99.90;;;;;;5040270;28;20116;-77
2021/04/07 06:50:41;;;;;;;1.45;1.23;;;2.10;99.90;;;;;;5061576;28;20031;-75
2021/04/07 06:53:09;;;;;;;4.50;2.60;;;1.90;99.90;;;;;;5058152;28;20086;-76
2021/04/07 06:55:35;;;;;;;2.65;1.55;;;1.90;99.90;;;;;;5041135;28;20106;-76
2021/04/07 06:58:02;;;;;;;2.60;1.80;;;2.00;99.90;;;;;;5053362;28;20025;-76
2021/04/07 07:00:28;;;;;;;3.00;1.83;;;2.00;37.30;;;;;;5076452;28;20051;-75
2021/04/07 07:03:06;;;;;;;8.13;2.65;;;2.00;99.90;;;;;;5057442;28;20016;-75
2021/04/07 07:05:34;;;;;;;9.80;4.28;;;2.10;89.40;;;;;;5075990;28;19997;-75
2021/04/07 07:08:08;;;;;;;6.03;2.28;;;2.10;99.90;;;;;;5064923;28;20022;-74
2021/04/07 07:10:39;;;;;;;5.57;2.90;;;2.30;1.00;;;;;;5070162;28;20031;-74
2021/04/07 07:13:05;;;;;;;;;;;2.30;1.00;;;;;;5067962;28;20033;-76
2021/04/07 07:15:31;;;;;;;5.13;1.90;;;2.50;1.00;;;;;;5065977;28;19917;-76
2021/04/07 07:17:57;;;;;;;4.45;1.70;;;2.50;99.90;;;;;;5063550;28;20052;-76
2021/04/07 07:20:30;;;;;;;7.32;2.10;;;2.60;99.90;;;;;;5075439;28;20029;-75
2021/04/07 07:22:55;;;;;;;7.40;1.70;;;2.20;1.00;;;;;;5076875;28;20041;-74
2021/04/07 07:25:22;;;;;;;6.03;3.13;;;2.10;99.90;;;;;;5076175;28;20009;-75
2021/04/07 07:27:48;;;;;;;2.67;1.80;;;2.20;1.00;;;;;;5045276;28;20408;-75
2021/04/07 07:30:14;;;;;;;3.92;1.70;;;2.50;1.00;;;;;;5061692;28;20037;-76
2021/04/07 07:32:43;;;;;;;2.92;1.25;;;2.50;99.90;;;;;;5061792;28;20064;-76
2021/04/07 07:35:11;;;;;;;5.50;1.92;;;2.50;99.70;;;;;;5054478;28;20036;-76
2021/04/07 07:37:37;;;;;;;4.13;1.45;;;2.50;99.90;;;;;;5073829;28;20081;-74
2021/04/07 07:40:05;;;;;;;2.95;1.75;;;2.30;1.00;;;;;;5074377;28;20037;-75
2021/04/07 07:42:32;;;;;;;2.58;1.40;;;2.40;99.90;;;;;;5065444;28;20002;-75
2021/04/07 07:44:57;;;;;;;2.15;1.50;;;2.60;99.90;;;;;;5068896;28;20036;-75
2021/04/07 07:47:32;;;;;;;4.78;1.40;;;2.90;1.00;;;;;;5066968;28;20029;-75
2021/04/07 07:50:03;;;;;;;5.75;2.15;;;3.00;99.90;;;;;;5065886;28;20051;-75
2021/04/07 07:52:34;;;;;;;5.32;1.50;;;2.90;99.90;;;;;;5067331;28;20033;-75
2021/04/07 07:55:12;;;;;;;3.92;1.65;;;2.80;1.00;;;;;;5065621;28;20028;-76
2021/04/07 07:57:38;;;;;;;2.88;1.10;;;2.80;99.90;;;;;;5061109;28;20080;-76
2021/04/07 08:00:08;;;;;;;2.85;1.45;;;2.70;99.90;;;;;;5060707;28;20071;-77
2021/04/07 08:02:35;;;;;;;3.20;1.80;;;2.50;99.90;;;;;;5040157;28;20036;-76
2021/04/07 08:05:01;;;;;;;1.95;1.50;;;2.30;99.90;;;;;;5064205;28;20271;-75
2021/04/07 08:07:26;;;;;;;3.28;1.92;;;2.60;99.90;;;;;;5061317;28;20039;-77
2021/04/07 08:09:53;;;;;;;3.78;1.88;;;2.60;99.90;;;;;;5059711;28;20044;-76
2021/04/07 08:12:19;;;;;;;5.78;2.53;;;2.60;1.00;;;;;;5059938;28;20052;-76
2021/04/07 08:14:47;;;;;;;3.35;1.73;;;2.70;99.90;;;;;;5063124;28;20029;-76
2021/04/07 08:17:15;;;;;;;1.92;1.38;;;2.80;1.00;;;;;;5050734;28;20041;-76
2021/04/07 08:19:42;;;;;;;4.93;1.85;;;2.90;1.00;;;;;;5042512;28;20104;-76
2021/04/07 08:22:11;;;;;;;3.60;1.35;;;3.10;47.10;;;;;;5056964;28;20048;-74
2021/04/07 08:24:38;;;;;;;3.28;1.42;;;3.20;17.40;;;;;;5055045;28;20026;-77
2021/04/07 08:27:06;;;;;;;2.15;1.20;;;3.40;99.90;;;;;;5045046;28;20068;-75
2021/04/07 08:29:32;;;;;;;4.85;1.45;;;3.20;99.90;;;;;;5063522;28;20045;-76
2021/04/07 08:31:58;;;;;;;4.70;1.58;;;3.30;55.00;;;;;;5043135;28;20459;-76
2021/04/07 08:34:24;;;;;;;1.55;1.45;;;3.40;1.00;;;;;;5040110;28;20109;-75
2021/04/07 08:36:55;;;;;;;4.32;1.50;;;3.30;1.00;;;;;;5057820;28;20518;-75
2021/04/07 08:39:24;;;;;;;3.05;2.17;;;3.40;27.30;;;;;;5048529;28;20006;-76
2021/04/07 08:41:49;;;;;;;2.70;1.42;;;3.50;52.20;;;;;;5043346;28;20029;-76
2021/04/07 08:44:17;;;;;;;5.05;2.13;;;3.30;2.30;;;;;;5042987;28;20040;-74
2021/04/07 08:46:50;;;;;;;3.88;1.50;;;3.00;99.90;;;;;;5060871;28;20025;-75
2021/04/07 08:49:35;;;;;;;2.35;1.08;;;3.00;1.00;;;;;;5065703;28;20024;-75
2021/04/07 08:52:24;;;;;;;1.90;1.25;;;3.00;99.90;;;;;;5049269;28;20147;-76
2021/04/07 08:54:51;;;;;;;5.10;1.75;;;3.30;1.00;;;;;;5050884;28;20032;-76
2021/04/07 08:57:27;;;;;;;2.40;1.73;;;3.70;99.90;;;;;;5027003;28;20026;-76
2021/04/07 08:59:57;;;;;;;4.85;1.77;;;4.10;1.00;;;;;;5042889;28;20021;-76
2021/04/07 09:02:23;;;;;;;3.33;1.80;;;4.00;99.90;;;;;;5049923;28;20554;-75
2021/04/07 09:05:08;;;;;;;2.20;1.27;;;4.20;1.00;;;;;;5056827;28;20037;-77
2021/04/07 09:07:41;;;;;;;1.65;1.00;;;3.70;1.00;;;;;;5064277;28;20029;-75
2021/04/07 09:10:09;;;;;;;5.50;1.95;;;3.10;99.90;;;;;;5062820;28;20021;-75
2021/04/07 09:12:36;;;;;;;5.20;1.48;;;2.90;99.90;;;;;;5037521;28;20025;-76
2021/04/07 09:15:30;;;;;;;5.03;2.10;;;3.00;99.90;;;;;;5061400;28;20485;-74
2021/04/07 09:17:57;;;;;;;3.53;1.85;;;2.80;1.00;;;;;;5034871;28;20460;-75
2021/04/07 09:20:39;;;;;;;4.90;2.90;;;2.70;1.00;;;;;;5028382;28;20415;-75
2021/04/07 09:23:21;;;;;;;3.03;1.92;;;2.90;1.00;;;;;;5064383;28;20111;-75
2021/04/07 09:25:50;;;;;;;6.72;2.75;;;3.20;99.90;;;;;;5066997;28;20040;-75
2021/04/07 09:28:17;;;;;;;4.78;2.13;;;3.40;99.90;;;;;;5064156;28;20039;-75
2021/04/07 09:30:48;;;;;;;6.25;2.00;;;3.60;99.90;;;;;;5048421;28;20041;-75
2021/04/07 09:33:15;;;;;;;1.90;1.70;;;3.80;99.90;;;;;;5050482;28;20071;-75
2021/04/07 09:35:58;;;;;;;6.00;1.75;;;4.00;99.90;;;;;;5073579;28;20088;-75
2021/04/07 09:38:25;;;;;;;2.45;1.75;;;4.10;34.60;;;;;;5055989;28;20045;-76
2021/04/07 09:41:08;;;;;;;3.90;1.88;;;4.50;99.90;;;;;;5068404;28;20043;-75
2021/04/07 09:43:35;;;;;;;3.70;1.70;;;4.50;99.90;;;;;;5051023;28;20109;-76
2021/04/07 09:46:00;;;;;;;2.05;1.63;;;4.70;1.00;;;;;;5076872;28;20045;-76
2021/04/07 09:48:52;;;;;;;3.20;2.42;;;4.90;99.90;;;;;;5078517;28;20023;-75
2021/04/07 09:51:21;;;;;;;1.90;1.75;;;5.00;99.90;;;;;;5058164;28;20020;-74
2021/04/07 09:53:47;;;;;;;1.52;1.20;;;4.90;99.90;;;;;;5076917;28;20017;-74
2021/04/07 09:56:13;;;;;;;5.60;1.98;;;5.10;1.00;;;;;;5076625;28;20012;-77
2021/04/07 09:58:42;;;;;;;3.90;1.73;;;5.20;99.90;;;;;;5077191;28;20025;-74
2021/04/07 10:01:08;;;;;;;2.92;1.52;;;5.20;99.90;;;;;;5076958;28;20017;-75
2021/04/07 10:03:34;;;;;;;2.17;1.60;;;5.30;99.90;;;;;;5071290;28;20148;-74
2021/04/07 10:05:59;;;;;;;6.50;1.83;;;5.20;99.90;;;;;;5074988;28;20018;-75
2021/04/07 10:08:26;;;;;;;2.47;1.35;;;5.00;1.00;;;;;;5079396;28;20028;-76
2021/04/07 10:11:04;;;;;;;2.05;1.50;;;5.30;99.90;;;;;;5078407;28;20009;-75
2021/04/07 10:13:30;;;;;;;3.70;1.50;;;5.20;99.90;;;;;;5077840;28;20029;-78
2021/04/07 10:15:56;;;;;;;2.17;1.50;;;5.20;26.90;;;;;;5078799;28;20036;-77
2021/04/07 10:18:29;;;;;;;3.58;1.42;;;5.40;1.00;;;;;;5057356;28;20049;-77
2021/04/07 10:20:55;;;;;;;2.17;1.20;;;5.10;1.00;;;;;;5071455;28;20021;-78
2021/04/07 10:23:24;;;;;;;4.07;2.05;;;4.40;99.90;;;;;;5071305;28;20021;-77
2021/04/07 10:25:53;;;;;;;3.53;1.65;;;4.40;1.00;;;;;;5047685;28;20085;-76
2021/04/07 10:28:19;;;;;;;1.85;1.42;;;4.30;99.90;;;;;;5063110;23;20141;-72
2021/04/07 10:30:45;;;;;;;4.15;1.83;;;4.00;1.00;;;;;;5039648;28;20104;-73
2021/04/07 10:33:11;;;;;;;3.00;1.73;;;3.90;1.00;;;;;;5033628;28;20057;-73
2021/04/07 10:35:39;;;;;;;2.53;1.60;;;4.10;85.80;;;;;;5017004;28;20057;-73
2021/04/07 10:38:12;;;;;;;2.78;1.73;;;4.30;1.00;;;;;;5044392;28;20025;-73
2021/04/07 10:40:40;;;;;;;2.65;1.67;;;4.40;99.90;;;;;;5048385;28;20131;-72
2021/04/07 10:43:12;;;;;;;4.88;2.33;;;4.30;10.50;;;;;;5054150;28;20029;-73
2021/04/07 10:45:37;;;;;;;4.18;2.17;;;4.30;99.90;;;;;;5043506;28;20037;-74
2021/04/07 10:48:04;;;;;;;3.47;1.65;;;4.20;97.10;;;;;;5042554;28;20047;-73
2021/04/07 10:50:35;;;;;;;4.03;2.10;;;4.60;1.00;;;;;;5043988;28;20419;-73
2021/04/07 10:53:01;;;;;;;3.30;1.10;;;4.60;1.00;;;;;;5043232;28;20449;-74
2021/04/07 10:55:28;;;;;;;4.07;2.38;;;4.90;35.20;;;;;;5041867;28;20029;-74
2021/04/07 10:57:57;;;;;;;3.53;2.28;;;5.10;99.90;;;;;;5025020;28;20024;-74
2021/04/07 11:00:37;;;;;;;2.05;1.38;;;5.50;99.90;;;;;;5043153;28;20017;-74
2021/04/07 11:03:04;;;;;;;2.20;1.70;;;5.80;99.90;;;;;;5039567;28;20028;-75
2021/04/07 11:05:48;;;;;;;3.40;1.50;;;6.10;99.90;;;;;;5019247;28;20040;-72
2021/04/07 11:08:15;;;;;;;2.08;1.33;;;6.10;1.00;;;;;;5053607;28;20067;-73
2021/04/07 11:10:42;;;;;;;3.58;1.33;;;6.00;1.00;;;;;;5053747;28;20021;-74
2021/04/07 11:13:09;;;;;;;2.80;2.22;;;5.70;1.00;;;;;;5036361;28;20062;-72
2021/04/07 11:15:35;;;;;;;4.18;1.58;;;5.80;1.00;;;;;;5053261;28;20087;-74
2021/04/07 11:18:01;;;;;;;2.70;1.55;;;6.20;99.90;;;;;;5053708;28;20465;-73
2021/04/07 11:20:28;;;;;;;2.50;1.20;;;6.10;99.90;;;;;;5053794;28;20021;-74
2021/04/07 11:22:55;;;;;;;5.60;1.45;;;5.90;99.90;;;;;;5034717;28;20124;-73
2021/04/07 11:25:21;;;;;;;4.18;1.33;;;5.80;99.90;;;;;;5033921;28;20027;-74
2021/04/07 11:27:47;;;;;;;1.73;0.95;;;5.40;99.90;;;;;;5053130;28;20021;-75
2021/04/07 11:30:14;;;;;;;2.80;1.30;;;5.40;99.90;;;;;;5052909;28;20095;-73
2021/04/07 11:32:44;;;;;;;3.65;1.77;;;5.90;99.90;;;;;;5053127;28;20025;-74
2021/04/07 11:35:20;;;;;;;3.58;1.60;;;6.20;99.90;;;;;;5035652;28;20059;-75
2021/04/07 11:37:53;;;;;;;5.35;1.23;;;6.20;99.90;;;;;;5035491;28;20061;-74
2021/04/07 11:40:37;;;;;;;3.15;1.20;;;6.30;99.90;;;;;;5051629;28;20119;-74
2021/04/07 11:43:18;;;;;;;3.75;1.25;;;6.60;99.90;;;;;;5049088;28;20047;-74
2021/04/07 11:45:44;;;;;;;10.30;1.27;;;6.80;55.30;;;;;;5053983;28;20477;-73
2021/04/07 11:48:11;;;;;;;3.53;1.23;;;7.40;1.90;;;;;;5062303;28;20071;-73
2021/04/07 11:50:37;;;;;;;6.75;1.70;;;7.80;99.90;;;;;;5063492;28;20028;-72
2021/04/07 11:53:02;;;;;;;3.75;1.48;;;7.60;99.90;;;;;;5051481;28;20057;-73
2021/04/07 11:55:28;;;;;;;3.08;1.80;;;7.30;99.90;;;;;;5063064;28;20024;-73
2021/04/07 11:57:54;;;;;;;3.70;1.42;;;7.20;99.90;;;;;;5063244;28;20072;-73
2021/04/07 12:00:20;;;;;;;3.42;1.40;;;6.70;99.90;;;;;;5053413;28;20021;-72
2021/04/07 12:02:46;;;;;;;2.92;1.40;;;6.30;99.90;;;;;;5054550;28;20056;-73
2021/04/07 12:05:15;;;;;;;2.25;1.33;;;6.40;99.90;;;;;;5051202;28;20025;-74
2021/04/07 12:07:42;;;;;;;1.92;1.30;;;6.50;99.90;;;;;;5019147;28;20046;-72
2021/04/07 12:10:21;;;;;;;3.97;1.23;;;6.40;99.90;;;;;;5035499;28;20067;-74
2021/04/07 12:12:47;;;;;;;4.00;1.25;;;6.10;99.90;;;;;;5034727;28;20025;-74
2021/04/07 12:15:14;;;;;;;3.70;1.35;;;5.90;99.90;;;;;;5053727;28;20032;-74
2021/04/07 12:17:39;;;;;;;2.70;1.10;;;5.90;99.90;;;;;;5047904;28;20022;-74
2021/04/07 12:20:06;;;;;;;1.58;1.15;;;5.80;99.90;;;;;;5024350;28;20071;-74
2021/04/07 12:22:31;;;;;;;2.70;1.17;;;5.40;99.90;;;;;;5038707;28;20021;-74
2021/04/07 12:24:57;;;;;;;2.28;1.05;;;5.30;99.90;;;;;;5035402;28;20025;-74
2021/04/07 12:27:22;;;;;;;4.78;1.50;;;5.30;99.90;;;;;;5047725;28;20030;-74
2021/04/07 12:29:48;;;;;;;2.22;1.20;;;5.60;1.00;;;;;;5030615;28;20096;-74
2021/04/07 12:32:14;;;;;;;5.47;1.77;;;5.50;1.00;;;;;;5045949;28;20101;-74
2021/04/07 12:34:40;;;;;;;2.40;1.20;;;5.40;1.00;;;;;;5057391;28;20029;-74
2021/04/07 12:37:05;;;;;;;2.80;1.23;;;5.40;1.00;;;;;;5057535;28;20097;-73
2021/04/07 12:39:33;;;;;;;2.85;1.30;;;5.40;1.00;;;;;;5056216;28;20021;-74
2021/04/07 12:42:00;;;;;;;4.80;1.52;;;5.90;1.00;;;;;;5048505;28;20021;-74
2021/04/07 12:44:26;;;;;;;8.38;1.00;;;6.00;1.00;;;;;;5053907;28;20033;-74
2021/04/07 12:46:52;;;;;;;3.67;1.30;;;5.50;1.00;;;;;;5060789;28;20029;-74
2021/04/07 12:49:17;;;;;;;4.45;1.20;;;5.70;1.00;;;;;;5060001;28;20079;-75
2021/04/07 12:51:43;;;;;;;2.67;1.20;;;5.90;1.00;;;;;;5056152;28;20039;-74
2021/04/07 12:54:12;;;;;;;2.38;1.20;;;5.90;99.90;;;;;;5057220;28;20025;-74
2021/04/07 12:56:38;;;;;;;6.57;1.10;;;6.10;99.90;;;;;;5043101;28;20018;-73
2021/04/07 12:59:04;;;;;;;3.10;1.10;;;6.10;99.90;;;;;;5052188;28;20032;-73
2021/04/07 13:01:29;;;;;;;2.60;1.15;;;5.80;99.90;;;;;;5056654;28;20029;-73